createdAt,value
2022-10-13T00:01:29.852Z,39.80
2022-10-13T00:03:58.473Z,38.80
2022-10-13T00:06:28.164Z,36.75
2022-10-13T00:08:57.485Z,36.25
2022-10-13T00:11:29.716Z,35.50
2022-10-13T00:14:02.824Z,38.85
2022-10-13T00:16:33.748Z,35.28
2022-10-13T00:19:02.447Z,37.05
2022-10-13T00:21:31.460Z,36.05
2022-10-13T00:24:00.117Z,40.22
2022-10-13T00:26:29.289Z,36.97
2022-10-13T00:28:58.242Z,39.00
2022-10-13T00:31:31.459Z,35.10
2022-10-13T00:34:02.264Z,35.60
2022-10-13T00:36:30.947Z,34.95
2022-10-13T00:38:59.962Z,35.08
2022-10-13T00:41:28.596Z,36.00
2022-10-13T00:44:01.025Z,39.08
2022-10-13T00:46:33.760Z,37.78
2022-10-13T00:49:07.796Z,38.15
2022-10-13T00:51:41.938Z,36.88
2022-10-13T00:54:15.235Z,36.88
2022-10-13T00:56:45.151Z,37.88
2022-10-13T00:59:23.085Z,37.15
2022-10-13T01:01:54.037Z,36.33
2022-10-13T01:04:28.264Z,35.50
2022-10-13T01:06:58.475Z,35.45
2022-10-13T01:09:27.127Z,35.50
2022-10-13T01:12:11.997Z,35.63
2022-10-13T01:14:51.060Z,35.08
2022-10-13T01:17:32.429Z,32.47
2022-10-13T01:20:47.316Z,33.35
2022-10-13T01:23:48.868Z,33.25
2022-10-13T01:26:43.891Z,33.30
2022-10-13T01:29:33.663Z,32.97
2022-10-13T01:32:11.612Z,32.67
2022-10-13T01:34:49.482Z,30.80
2022-10-13T01:37:25.814Z,32.97
2022-10-13T01:40:03.959Z,31.75
2022-10-13T01:42:46.453Z,31.13
2022-10-13T01:45:18.806Z,31.13
2022-10-13T01:47:50.468Z,31.27
2022-10-13T01:50:20.871Z,31.33
2022-10-13T01:52:51.418Z,29.00
2022-10-13T01:55:19.963Z,30.80
2022-10-13T01:57:48.597Z,32.28
2022-10-13T02:00:22.614Z,30.42
2022-10-13T02:03:11.900Z,33.53
2022-10-13T02:05:50.281Z,29.75
2022-10-13T02:08:31.853Z,30.05
2022-10-13T02:11:13.236Z,30.48
2022-10-13T02:13:49.649Z,29.45
2022-10-13T02:16:20.745Z,29.33
2022-10-13T02:18:52.500Z,31.00
2022-10-13T02:21:21.227Z,29.02
2022-10-13T02:23:49.999Z,28.67
2022-10-13T02:26:18.725Z,30.15
2022-10-13T02:28:47.997Z,29.27
2022-10-13T02:31:16.763Z,28.63
2022-10-13T02:33:45.340Z,27.65
2022-10-13T02:36:15.345Z,27.65
2022-10-13T02:38:43.852Z,27.35
2022-10-13T02:41:12.404Z,27.98
2022-10-13T02:43:40.965Z,27.80
2022-10-13T02:46:09.527Z,26.77
2022-10-13T02:48:38.494Z,27.02
2022-10-13T02:51:07.637Z,26.48
2022-10-13T02:53:37.695Z,28.13
2022-10-13T02:56:06.727Z,29.25
2022-10-13T02:58:35.568Z,26.77
2022-10-13T03:01:08.878Z,29.75
2022-10-13T03:03:38.058Z,28.13
2022-10-13T03:06:07.710Z,26.17
2022-10-13T03:08:38.081Z,26.95
2022-10-13T03:11:07.433Z,27.75
2022-10-13T03:13:37.545Z,27.25
2022-10-13T03:16:06.963Z,27.50
2022-10-13T03:18:39.872Z,27.95
2022-10-13T03:21:11.112Z,26.88
2022-10-13T03:23:41.432Z,27.23
2022-10-13T03:26:10.129Z,27.52
2022-10-13T03:28:39.035Z,28.73
2022-10-13T03:31:10.272Z,27.73
2022-10-13T03:33:39.180Z,27.73
2022-10-13T03:36:08.810Z,29.35
2022-10-13T03:38:38.147Z,26.98
2022-10-13T03:41:09.640Z,27.65
2022-10-13T03:43:38.301Z,30.88
2022-10-13T03:46:08.954Z,26.75
2022-10-13T03:48:38.113Z,30.02
2022-10-13T03:51:08.442Z,27.13
2022-10-13T03:53:38.014Z,27.98
2022-10-13T03:56:09.480Z,28.85
2022-10-13T03:58:38.084Z,31.15
2022-10-13T04:01:07.539Z,28.58
2022-10-13T04:03:36.902Z,26.67
2022-10-13T04:06:07.319Z,31.92
2022-10-13T04:08:36.213Z,26.75
2022-10-13T04:11:10.471Z,26.70
2022-10-13T04:13:39.791Z,26.42
2022-10-13T04:16:13.944Z,27.90
2022-10-13T04:18:44.904Z,26.83
2022-10-13T04:21:16.408Z,27.55
2022-10-13T04:23:44.966Z,27.67
2022-10-13T04:26:20.704Z,27.17
2022-10-13T04:28:51.501Z,28.83
2022-10-13T04:31:22.082Z,31.70
2022-10-13T04:33:52.241Z,27.33
2022-10-13T04:36:22.381Z,29.05
2022-10-13T04:38:51.156Z,27.38
2022-10-13T04:41:22.945Z,27.45
2022-10-13T04:43:52.933Z,25.98
2022-10-13T04:46:25.639Z,27.75
2022-10-13T04:48:55.591Z,27.70
2022-10-13T04:51:26.571Z,26.95
2022-10-13T04:54:01.156Z,24.75
2022-10-13T04:56:31.460Z,26.77
2022-10-13T04:59:00.735Z,29.75
2022-10-13T05:01:29.541Z,27.40
2022-10-13T05:04:02.225Z,36.03
2022-10-13T05:06:33.756Z,28.38
2022-10-13T05:09:02.681Z,26.42
2022-10-13T05:11:33.383Z,38.97
2022-10-13T05:14:03.536Z,32.03
2022-10-13T05:16:32.179Z,31.05
2022-10-13T05:19:00.725Z,30.33
2022-10-13T05:21:30.799Z,29.60
2022-10-13T05:24:00.275Z,27.75
2022-10-13T05:26:33.690Z,27.98
2022-10-13T05:29:04.380Z,26.13
2022-10-13T05:31:35.528Z,25.25
2022-10-13T05:34:04.614Z,27.85
2022-10-13T05:36:35.913Z,24.77
2022-10-13T05:39:07.686Z,26.08
2022-10-13T05:41:39.280Z,27.55
2022-10-13T05:44:10.076Z,27.42
2022-10-13T05:46:38.955Z,26.85
2022-10-13T05:49:07.575Z,26.70
2022-10-13T05:51:41.247Z,30.95
2022-10-13T05:54:17.181Z,29.48
2022-10-13T05:56:53.673Z,29.38
2022-10-13T05:59:27.300Z,28.23
2022-10-13T06:01:56.808Z,28.90
2022-10-13T06:04:32.885Z,25.92
2022-10-13T06:07:01.688Z,27.50
2022-10-13T06:09:36.070Z,31.58
2022-10-13T06:12:06.772Z,30.30
2022-10-13T06:14:35.785Z,27.00
2022-10-13T06:17:04.405Z,28.90
2022-10-13T06:19:33.153Z,28.55
2022-10-13T06:22:03.715Z,29.40
2022-10-13T06:24:32.909Z,29.05
2022-10-13T06:27:01.512Z,32.30
2022-10-13T06:29:33.453Z,27.63
2022-10-13T06:32:02.153Z,27.48
2022-10-13T06:34:31.271Z,28.25
2022-10-13T06:36:59.839Z,29.00
2022-10-13T06:39:28.420Z,26.75
2022-10-13T06:41:57.014Z,29.80
2022-10-13T06:44:25.584Z,25.17
2022-10-13T06:46:55.612Z,32.78
2022-10-13T06:49:25.775Z,29.38
2022-10-13T06:51:54.568Z,24.27
2022-10-13T06:54:23.213Z,27.30
2022-10-13T06:56:52.032Z,24.88
2022-10-13T06:59:21.288Z,23.55
2022-10-13T07:01:51.875Z,24.67
2022-10-13T07:04:23.049Z,23.50
2022-10-13T07:06:52.807Z,30.67
2022-10-13T07:09:21.646Z,28.08
2022-10-13T07:11:50.675Z,27.15
2022-10-13T07:14:19.339Z,25.40
2022-10-13T07:16:49.753Z,25.35
2022-10-13T07:19:18.399Z,25.92
2022-10-13T07:21:48.398Z,27.23
2022-10-13T07:24:17.257Z,26.50
2022-10-13T07:26:45.863Z,31.83
2022-10-13T07:29:14.599Z,27.00
2022-10-13T07:31:44.834Z,27.05
2022-10-13T07:34:14.088Z,30.30
2022-10-13T07:36:42.685Z,27.25
2022-10-13T07:39:13.370Z,26.95
2022-10-13T07:41:42.353Z,27.10
2022-10-13T07:44:10.909Z,26.98
2022-10-13T07:46:39.436Z,27.85
2022-10-13T07:49:10.161Z,30.83
2022-10-13T07:51:42.325Z,28.55
2022-10-13T07:54:12.432Z,28.58
2022-10-13T07:56:41.319Z,28.92
2022-10-13T07:59:10.022Z,28.60
2022-10-13T08:01:39.037Z,28.38
2022-10-13T08:04:08.205Z,29.13
2022-10-13T08:06:36.972Z,28.00
2022-10-13T08:09:06.707Z,31.73
2022-10-13T08:11:36.739Z,28.38
2022-10-13T08:14:05.349Z,30.15
2022-10-13T08:16:34.445Z,26.15
2022-10-13T08:19:03.061Z,28.35
2022-10-13T08:24:22.572Z,26.60
2022-10-13T08:26:52.824Z,31.73
2022-10-13T08:29:22.875Z,28.08
2022-10-13T08:31:53.283Z,26.67
2022-10-13T08:34:22.900Z,26.98
2022-10-13T08:36:53.663Z,23.42
2022-10-13T08:39:23.652Z,23.67
2022-10-13T08:41:55.618Z,33.58
2022-10-13T08:45:10.398Z,26.33
2022-10-13T08:47:41.518Z,24.05
2022-10-13T08:50:16.769Z,25.42
2022-10-13T08:52:51.384Z,25.17
2022-10-13T08:55:33.852Z,24.90
2022-10-13T08:58:13.550Z,24.00
2022-10-13T09:00:43.752Z,24.40
2022-10-13T09:03:26.127Z,28.77
2022-10-13T09:06:12.569Z,30.95
2022-10-13T09:08:48.851Z,29.63
2022-10-13T09:11:38.628Z,26.77
2022-10-13T09:14:13.022Z,22.92
2022-10-13T09:16:45.025Z,27.50
2022-10-13T09:19:21.162Z,24.38
2022-10-13T09:21:51.011Z,28.50
2022-10-13T09:24:22.947Z,29.23
2022-10-13T09:27:05.272Z,32.60
2022-10-13T09:29:35.276Z,29.90
2022-10-13T09:32:19.029Z,29.30
2022-10-13T09:34:48.990Z,25.35
2022-10-13T09:37:24.269Z,25.85
2022-10-13T09:40:20.763Z,28.63
2022-10-13T09:42:54.288Z,28.83
2022-10-13T09:45:27.992Z,25.88
2022-10-13T09:48:00.953Z,30.20
2022-10-13T09:50:32.008Z,24.95
2022-10-13T09:53:21.399Z,25.95
2022-10-13T09:55:49.992Z,29.67
2022-10-13T09:58:26.495Z,32.83
2022-10-13T10:00:58.802Z,30.60
2022-10-13T10:03:33.525Z,42.92
2022-10-13T10:06:05.327Z,33.42
2022-10-13T10:09:03.773Z,33.85
2022-10-13T10:11:40.644Z,32.75
2022-10-13T10:14:22.387Z,36.72
2022-10-13T10:17:01.928Z,35.00
2022-10-13T10:19:47.732Z,34.90
2022-10-13T10:22:32.508Z,38.58
2022-10-13T10:25:16.610Z,37.35
2022-10-13T10:27:56.819Z,35.25
2022-10-13T10:30:25.468Z,33.35
2022-10-13T10:33:05.046Z,31.38
2022-10-13T10:35:45.433Z,33.40
2022-10-13T10:38:36.756Z,45.25
2022-10-13T10:41:16.123Z,33.97
2022-10-13T10:43:55.477Z,36.28
2022-10-13T10:46:27.159Z,38.63
2022-10-13T10:49:04.093Z,37.08
2022-10-13T10:51:39.585Z,43.70
2022-10-13T10:54:25.209Z,37.67
2022-10-13T10:57:01.701Z,50.95
2022-10-13T10:59:50.070Z,39.25
2022-10-13T11:02:44.120Z,35.05
2022-10-13T11:05:15.489Z,35.03
2022-10-13T11:07:59.846Z,35.85
2022-10-13T11:10:30.555Z,32.40
2022-10-13T11:13:19.957Z,32.92
2022-10-13T11:15:48.554Z,32.15
2022-10-13T11:18:59.515Z,31.70
2022-10-13T11:22:23.966Z,30.33
2022-10-13T11:25:27.350Z,28.92
2022-10-13T11:27:55.889Z,30.20
2022-10-13T11:30:55.415Z,29.92
2022-10-13T11:33:57.537Z,29.30
2022-10-13T11:36:56.374Z,30.15
2022-10-13T11:40:17.483Z,31.65
2022-10-13T11:43:22.487Z,27.65
2022-10-13T11:46:21.047Z,29.73
2022-10-13T11:49:47.063Z,29.15
2022-10-13T11:52:52.169Z,28.60
2022-10-13T11:55:40.635Z,30.60
2022-10-13T11:58:17.993Z,31.42
2022-10-13T12:00:58.273Z,28.70
2022-10-13T12:03:31.155Z,25.05
2022-10-13T12:06:03.635Z,25.25
2022-10-13T12:08:37.135Z,25.45
2022-10-13T12:11:10.323Z,26.05
2022-10-13T12:13:39.021Z,26.42
2022-10-13T12:16:09.734Z,25.42
2022-10-13T12:18:41.644Z,24.73
2022-10-13T12:21:16.301Z,24.38
2022-10-13T12:23:46.509Z,26.45
2022-10-13T12:26:19.713Z,28.10
2022-10-13T12:28:53.895Z,26.67
2022-10-13T12:31:26.032Z,24.88
2022-10-13T12:33:57.345Z,30.17
2022-10-13T12:36:32.077Z,26.25
2022-10-13T12:39:06.220Z,26.48
2022-10-13T12:41:40.074Z,29.42
2022-10-13T12:44:14.735Z,28.63
2022-10-13T12:46:46.089Z,28.17
2022-10-13T12:49:18.187Z,26.67
2022-10-13T12:51:50.964Z,27.92
2022-10-13T12:54:27.084Z,25.20
2022-10-13T12:57:00.272Z,25.75
2022-10-13T12:59:31.936Z,24.73
2022-10-13T13:02:03.809Z,25.52
2022-10-13T13:04:43.710Z,27.75
2022-10-13T13:07:34.272Z,25.52
2022-10-13T13:10:19.059Z,24.42
2022-10-13T13:12:49.266Z,23.42
2022-10-13T13:15:35.806Z,23.75
2022-10-13T13:18:35.926Z,23.05
2022-10-13T13:21:07.649Z,23.27
2022-10-13T13:23:36.507Z,24.00
2022-10-13T13:26:14.852Z,25.02
2022-10-13T13:28:47.922Z,27.02
2022-10-13T13:31:18.463Z,25.15
2022-10-13T13:33:48.224Z,22.85
2022-10-13T13:36:21.495Z,21.55
2022-10-13T13:38:51.057Z,21.38
2022-10-13T13:41:21.365Z,23.73
2022-10-13T13:43:51.252Z,20.50
2022-10-13T13:46:24.334Z,20.42
2022-10-13T13:48:53.561Z,31.40
2022-10-13T13:51:22.208Z,31.48
2022-10-13T13:53:50.811Z,29.55
2022-10-13T13:56:22.500Z,25.38
2022-10-13T13:58:50.980Z,23.13
2022-10-13T14:01:19.723Z,23.13
2022-10-13T14:03:48.302Z,31.25
2022-10-13T14:06:22.838Z,22.73
2022-10-13T14:08:52.304Z,22.08
2022-10-13T14:11:22.344Z,23.08
2022-10-13T14:13:50.976Z,32.40
2022-10-13T14:16:19.595Z,35.60
2022-10-13T14:18:48.279Z,30.15
2022-10-13T14:21:16.808Z,26.02
2022-10-13T14:23:47.150Z,26.30
2022-10-13T14:26:16.236Z,22.73
2022-10-13T14:28:46.460Z,22.50
2022-10-13T14:31:15.158Z,22.48
2022-10-13T14:33:44.468Z,21.90
2022-10-13T14:36:13.040Z,22.02
2022-10-13T14:38:41.663Z,20.67
2022-10-13T14:41:11.080Z,20.27
2022-10-13T14:43:39.613Z,21.48
2022-10-13T14:46:09.625Z,22.90
2022-10-13T14:48:39.354Z,19.98
2022-10-13T14:51:08.947Z,21.95
2022-10-13T14:53:40.180Z,24.08
2022-10-13T14:56:19.958Z,29.75
2022-10-13T14:58:49.828Z,26.88
2022-10-13T15:01:20.854Z,24.88
2022-10-13T15:03:50.217Z,25.70
2022-10-13T15:06:22.792Z,23.42
2022-10-13T15:08:52.290Z,23.38
2022-10-13T15:11:22.820Z,23.17
2022-10-13T15:13:51.400Z,23.35
2022-10-13T15:16:23.648Z,34.03
2022-10-13T15:18:52.554Z,36.13
2022-10-13T15:21:22.359Z,32.00
2022-10-13T15:23:51.226Z,31.42
2022-10-13T15:26:21.414Z,28.95
2022-10-13T15:28:52.838Z,24.60
2022-10-13T15:31:24.546Z,23.33
2022-10-13T15:33:55.163Z,23.13
2022-10-13T15:36:25.721Z,23.23
2022-10-13T15:38:54.519Z,22.70
2022-10-13T15:41:24.528Z,23.27
2022-10-13T15:43:53.191Z,24.30
2022-10-13T15:46:24.305Z,24.13
2022-10-13T15:48:55.512Z,23.30
2022-10-13T15:51:27.121Z,20.65
2022-10-13T15:53:56.466Z,20.33
2022-10-13T15:56:25.049Z,22.33
2022-10-13T15:58:54.322Z,20.65
2022-10-13T16:01:24.308Z,21.73
2022-10-13T16:03:56.105Z,21.25
2022-10-13T16:06:24.985Z,19.15
2022-10-13T16:08:54.224Z,20.85
2022-10-13T16:11:26.054Z,19.88
2022-10-13T16:13:54.878Z,22.20
2022-10-13T16:16:24.853Z,21.63
2022-10-13T16:18:53.429Z,21.33
2022-10-13T16:21:26.004Z,21.70
2022-10-13T16:23:54.849Z,20.00
2022-10-13T16:26:23.459Z,21.83
2022-10-13T16:28:56.222Z,23.45
2022-10-13T16:31:26.183Z,24.17
2022-10-13T16:33:56.288Z,24.02
2022-10-13T16:36:25.421Z,23.13
2022-10-13T16:38:55.782Z,21.67
2022-10-13T16:41:25.848Z,23.02
2022-10-13T16:43:54.395Z,25.10
2022-10-13T16:46:23.136Z,36.58
2022-10-13T16:48:53.099Z,38.28
2022-10-13T16:51:23.962Z,26.63
2022-10-13T16:53:58.617Z,21.98
2022-10-13T16:56:30.325Z,21.60
2022-10-13T16:59:01.632Z,21.52
2022-10-13T17:01:32.070Z,21.27
2022-10-13T17:04:02.591Z,21.23
2022-10-13T17:06:31.790Z,22.33
2022-10-13T17:09:02.987Z,23.45
2022-10-13T17:11:35.227Z,21.23
2022-10-13T17:14:05.433Z,20.00
2022-10-13T17:16:35.808Z,19.77
2022-10-13T17:19:06.884Z,22.42
2022-10-13T17:21:35.797Z,19.95
2022-10-13T17:24:04.486Z,20.48
2022-10-13T17:26:33.067Z,19.35
2022-10-13T17:29:02.054Z,20.27
2022-10-13T17:31:30.966Z,19.25
2022-10-13T17:34:00.869Z,21.77
2022-10-13T17:36:34.286Z,20.63
2022-10-13T17:39:07.404Z,19.55
2022-10-13T17:41:36.597Z,20.20
2022-10-13T17:44:05.778Z,19.15
2022-10-13T17:46:37.826Z,20.08
2022-10-13T17:49:08.546Z,20.50
2022-10-13T17:51:41.503Z,48.53
2022-10-13T17:54:16.059Z,41.00
2022-10-13T17:56:45.983Z,23.88
2022-10-13T17:59:15.661Z,20.30
2022-10-13T18:01:46.506Z,19.27
2022-10-13T18:04:18.690Z,18.05
2022-10-13T18:06:48.860Z,18.58
2022-10-13T18:09:20.723Z,19.48
2022-10-13T18:11:51.630Z,19.23
2022-10-13T18:14:21.608Z,18.17
2022-10-13T18:16:50.788Z,20.05
2022-10-13T18:19:19.831Z,18.20
2022-10-13T18:21:50.495Z,19.13
2022-10-13T18:24:19.288Z,19.08
2022-10-13T18:26:48.380Z,20.50
2022-10-13T18:29:16.932Z,18.65
2022-10-13T18:31:45.759Z,21.17
2022-10-13T18:34:17.570Z,21.48
2022-10-13T18:36:50.670Z,20.63
2022-10-13T18:39:22.363Z,19.25
2022-10-13T18:41:52.178Z,20.27
2022-10-13T18:44:21.468Z,20.77
2022-10-13T18:46:52.504Z,20.95
2022-10-13T18:49:23.293Z,22.02
2022-10-13T18:51:53.534Z,19.83
2022-10-13T18:54:22.094Z,20.92
2022-10-13T18:56:50.821Z,20.42
2022-10-13T18:59:19.701Z,64.10
2022-10-13T19:01:48.758Z,43.15
2022-10-13T19:04:17.746Z,23.77
2022-10-13T19:06:48.521Z,21.88
2022-10-13T19:09:18.554Z,21.73
2022-10-13T19:11:47.129Z,21.23
2022-10-13T19:14:16.141Z,23.05
2022-10-13T19:16:45.669Z,24.38
2022-10-13T19:19:14.874Z,22.00
2022-10-13T19:21:43.866Z,27.98
2022-10-13T19:24:12.842Z,25.15
2022-10-13T19:26:43.101Z,21.73
2022-10-13T19:29:15.694Z,21.05
2022-10-13T19:31:45.178Z,22.30
2022-10-13T19:34:15.034Z,21.88
2022-10-13T19:36:46.296Z,20.92
2022-10-13T19:39:22.659Z,22.50
2022-10-13T19:41:55.888Z,25.25
2022-10-13T19:44:26.319Z,24.58
2022-10-13T19:46:55.730Z,24.90
2022-10-13T19:49:26.629Z,23.67
2022-10-13T19:51:56.103Z,24.08
2022-10-13T19:54:28.015Z,24.38
2022-10-13T19:57:01.572Z,24.58
2022-10-13T19:59:30.497Z,24.27
2022-10-13T20:01:59.078Z,23.90
2022-10-13T20:04:27.975Z,25.30
2022-10-13T20:06:56.652Z,24.70
2022-10-13T20:09:25.257Z,24.60
2022-10-13T20:11:54.177Z,22.85
2022-10-13T20:14:24.203Z,25.70
2022-10-13T20:16:53.517Z,25.45
2022-10-13T20:19:22.121Z,23.77
2022-10-13T20:21:51.850Z,23.80
2022-10-13T20:24:23.123Z,23.42
2022-10-13T20:26:51.980Z,23.80
2022-10-13T20:29:20.695Z,23.70
2022-10-13T20:31:50.705Z,21.85
2022-10-13T20:34:19.366Z,22.58
2022-10-13T20:36:50.431Z,23.17
2022-10-13T20:39:19.187Z,24.48
2022-10-13T20:41:47.853Z,22.70
2022-10-13T20:44:16.561Z,23.42
2022-10-13T20:46:45.518Z,23.58
2022-10-13T20:49:15.495Z,23.30
2022-10-13T20:51:45.425Z,21.92
2022-10-13T20:54:16.307Z,24.98
2022-10-13T20:56:45.465Z,26.13
2022-10-13T20:59:15.719Z,22.52
2022-10-13T21:01:44.453Z,25.50
2022-10-13T21:04:14.416Z,23.92
2022-10-13T21:06:43.667Z,23.23
2022-10-13T21:09:13.033Z,23.67
2022-10-13T21:11:41.661Z,26.48
2022-10-13T21:14:10.503Z,29.50
2022-10-13T21:16:40.288Z,25.15
2022-10-13T21:19:09.216Z,23.48
2022-10-13T21:21:39.266Z,24.30
2022-10-13T21:24:09.490Z,24.95
2022-10-13T21:26:38.890Z,33.95
2022-10-13T21:29:07.716Z,27.38
2022-10-13T21:31:36.651Z,26.23
2022-10-13T21:34:05.367Z,36.30
2022-10-13T21:36:36.795Z,28.23
2022-10-13T21:39:07.717Z,28.83
2022-10-13T21:41:36.281Z,30.33
2022-10-13T21:44:05.445Z,33.22
2022-10-13T21:46:35.705Z,33.25
2022-10-13T21:49:06.898Z,31.08
2022-10-13T21:51:38.115Z,29.65
2022-10-13T21:54:11.042Z,26.20
2022-10-13T21:56:41.129Z,25.27
2022-10-13T21:59:12.357Z,24.92
2022-10-13T22:01:41.837Z,25.15
2022-10-13T22:04:13.987Z,24.98
2022-10-13T22:06:42.683Z,24.98
2022-10-13T22:09:13.317Z,26.38
2022-10-13T22:11:42.796Z,26.35
2022-10-13T22:14:11.956Z,25.77
2022-10-13T22:16:43.252Z,27.13
2022-10-13T22:19:12.609Z,27.70
2022-10-13T22:21:44.764Z,28.00
2022-10-13T22:24:17.384Z,25.30
2022-10-13T22:26:47.552Z,27.15
2022-10-13T22:29:19.474Z,25.75
2022-10-13T22:31:48.524Z,23.63
2022-10-13T22:34:18.312Z,24.13
2022-10-13T22:36:47.099Z,23.23
2022-10-13T22:39:17.595Z,22.05
2022-10-13T22:41:46.408Z,23.42
2022-10-13T22:44:14.987Z,21.85
2022-10-13T22:46:43.782Z,23.20
2022-10-13T22:49:13.425Z,25.35
2022-10-13T22:51:42.062Z,25.30
2022-10-13T22:54:11.329Z,25.58
2022-10-13T22:56:43.232Z,26.42
2022-10-13T22:59:14.098Z,25.35
2022-10-13T23:01:42.872Z,24.77
2022-10-13T23:04:11.748Z,25.48
2022-10-13T23:06:40.269Z,24.70
2022-10-13T23:09:13.139Z,24.48
2022-10-13T23:11:43.127Z,23.05
2022-10-13T23:14:11.777Z,23.48
2022-10-13T23:16:40.435Z,27.33
2022-10-13T23:19:09.026Z,23.38
2022-10-13T23:21:37.555Z,23.20
2022-10-13T23:24:08.416Z,23.55
2022-10-13T23:26:37.213Z,25.10
2022-10-13T23:29:07.515Z,25.77
2022-10-13T23:31:36.041Z,24.00
2022-10-13T23:34:04.656Z,25.23
2022-10-13T23:36:34.758Z,23.92
2022-10-13T23:39:23.856Z,25.92
2022-10-13T23:41:52.367Z,24.15
2022-10-13T23:44:22.474Z,26.02
2022-10-13T23:46:51.095Z,24.83
2022-10-13T23:49:19.649Z,24.85
2022-10-13T23:51:48.335Z,24.42
2022-10-13T23:54:16.943Z,23.95
2022-10-13T23:56:45.563Z,24.75
2022-10-13T23:59:14.465Z,24.98
